TAF

Looking Back 6 Hours

Worst Weather Category
LocationTimeVisiblityCeilingWeatherWind SpeedWind Gust
KPBF231123Z52500Light Rain NE 8NA NA

  • TAFPBF TAF KPBF 231123Z 2312/2412 VRB04KT P6SM VCSH SCT025 BKN050 OVC100
          TEMPO 2312/2316 5SM -RA BR BKN025
          FM231800 05008KT P6SM SCT040 BKN150
          FM240000 VRB03KT P6SM SCT250 =